createdAt,value
2018-02-03T00:00:42.571Z,4.80
2018-02-03T00:03:11.437Z,4.80
2018-02-03T00:05:39.567Z,4.80
2018-02-03T00:08:07.803Z,4.80
2018-02-03T00:10:36.693Z,4.80
2018-02-03T00:13:05.563Z,4.80
2018-02-03T00:15:33.777Z,4.80
2018-02-03T00:18:01.889Z,4.80
2018-02-03T00:20:30.051Z,4.80
2018-02-03T00:22:58.165Z,4.70
2018-02-03T00:25:27.035Z,4.60
2018-02-03T00:27:55.157Z,4.60
2018-02-03T00:30:23.319Z,4.60
2018-02-03T00:32:51.484Z,4.50
2018-02-03T00:35:20.363Z,4.50
2018-02-03T00:37:49.243Z,4.40
2018-02-03T00:40:17.349Z,4.40
2018-02-03T00:42:45.507Z,4.40
2018-02-03T00:45:14.387Z,4.40
2018-02-03T00:47:43.259Z,4.40
2018-02-03T00:50:11.563Z,4.30
2018-02-03T00:52:40.559Z,4.40
2018-02-03T00:55:09.435Z,4.30
2018-02-03T00:57:38.311Z,4.40
2018-02-03T01:00:06.445Z,4.30
2018-02-03T01:02:34.587Z,4.40
2018-02-03T01:05:02.698Z,4.40
2018-02-03T01:07:30.816Z,4.40
2018-02-03T01:09:59.719Z,4.40
2018-02-03T01:12:27.897Z,4.40
2018-02-03T01:14:56.067Z,4.40
2018-02-03T01:17:24.195Z,4.50
2018-02-03T01:19:52.368Z,4.50
2018-02-03T01:22:20.539Z,4.50
2018-02-03T01:24:48.660Z,4.50
2018-02-03T01:27:16.771Z,4.50
2018-02-03T01:29:44.899Z,4.50
2018-02-03T01:32:13.784Z,4.50
2018-02-03T01:34:42.659Z,4.50
2018-02-03T01:37:10.777Z,4.50
2018-02-03T01:39:38.892Z,4.50
2018-02-03T01:42:07.010Z,4.50
2018-02-03T01:44:35.127Z,4.50
2018-02-03T01:47:03.243Z,4.50
2018-02-03T01:49:31.390Z,4.50
2018-02-03T01:51:59.586Z,4.50
2018-02-03T01:54:28.480Z,4.50
2018-02-03T01:56:56.646Z,4.50
2018-02-03T01:59:25.526Z,4.60
2018-02-03T02:01:54.462Z,4.60
2018-02-03T02:04:22.604Z,4.50
2018-02-03T02:06:51.488Z,4.60
2018-02-03T02:09:20.374Z,4.60
2018-02-03T02:11:49.274Z,4.60
2018-02-03T02:14:18.169Z,4.60
2018-02-03T02:16:47.054Z,4.60
2018-02-03T02:19:15.942Z,4.60
2018-02-03T02:21:44.823Z,4.60
2018-02-03T02:24:13.716Z,4.70
2018-02-03T02:26:42.748Z,4.70
2018-02-03T02:29:10.826Z,4.60
2018-02-03T02:31:39.169Z,4.70
2018-02-03T02:34:08.043Z,4.70
2018-02-03T02:36:36.910Z,4.70
2018-02-03T02:39:05.219Z,4.60
2018-02-03T02:41:34.150Z,4.60
2018-02-03T02:44:02.254Z,4.60
2018-02-03T02:46:30.366Z,4.60
2018-02-03T02:48:58.632Z,4.60
2018-02-03T02:51:27.524Z,4.70
2018-02-03T02:53:56.398Z,4.70
2018-02-03T02:56:24.498Z,4.60
2018-02-03T02:58:52.630Z,4.70
2018-02-03T03:01:20.834Z,4.70
2018-02-03T03:03:49.102Z,4.60
2018-02-03T03:06:17.976Z,4.70
2018-02-03T03:08:46.088Z,4.60
2018-02-03T03:11:14.245Z,4.70
2018-02-03T03:13:42.386Z,4.70
2018-02-03T03:16:10.511Z,4.70
2018-02-03T03:18:38.661Z,4.70
2018-02-03T03:21:07.548Z,4.70
2018-02-03T03:23:36.441Z,4.70
2018-02-03T03:26:05.334Z,4.60
2018-02-03T03:28:34.219Z,4.60
2018-02-03T03:31:03.092Z,4.60
2018-02-03T03:33:31.292Z,4.60
2018-02-03T03:35:59.421Z,4.60
2018-02-03T03:38:27.503Z,4.60
2018-02-03T03:40:55.703Z,4.60
2018-02-03T03:43:23.829Z,4.60
2018-02-03T03:45:51.951Z,4.60
2018-02-03T03:48:20.067Z,4.60
2018-02-03T03:50:48.203Z,4.60
2018-02-03T03:53:16.351Z,4.60
2018-02-03T03:55:45.235Z,4.60
2018-02-03T03:58:14.117Z,4.60
2018-02-03T04:00:42.231Z,4.60
2018-02-03T04:03:10.359Z,4.60
2018-02-03T04:05:38.493Z,4.70
2018-02-03T04:08:06.595Z,4.60
2018-02-03T04:10:34.707Z,4.70
2018-02-03T04:13:02.831Z,4.70
2018-02-03T04:15:30.935Z,4.70
2018-02-03T04:17:59.823Z,4.70
2018-02-03T04:20:27.954Z,4.60
2018-02-03T04:22:56.283Z,4.60
2018-02-03T04:25:25.159Z,4.70
2018-02-03T04:27:53.351Z,4.60
2018-02-03T04:30:22.247Z,4.60
2018-02-03T04:32:50.381Z,4.60
2018-02-03T04:35:18.487Z,4.60
2018-02-03T04:37:47.370Z,4.70
2018-02-03T04:40:16.263Z,4.60
2018-02-03T04:42:45.155Z,4.60
2018-02-03T04:45:14.045Z,4.60
2018-02-03T04:47:42.910Z,4.60
2018-02-03T04:50:11.068Z,4.60
2018-02-03T04:52:39.198Z,4.60
2018-02-03T04:55:07.316Z,4.60
2018-02-03T04:57:35.426Z,4.60
2018-02-03T05:00:03.558Z,4.50
2018-02-03T05:02:31.682Z,4.60
2018-02-03T05:04:59.790Z,4.50
2018-02-03T05:07:27.906Z,4.50
2018-02-03T05:09:56.798Z,4.50
2018-02-03T05:12:25.682Z,4.50
2018-02-03T05:14:54.586Z,4.50
2018-02-03T05:17:22.729Z,4.40
2018-02-03T05:19:50.932Z,4.40
2018-02-03T05:22:19.108Z,4.40
2018-02-03T05:24:48.004Z,4.40
2018-02-03T05:27:16.180Z,4.40
2018-02-03T05:29:44.284Z,4.40
2018-02-03T05:32:12.408Z,4.40
2018-02-03T05:34:41.330Z,4.40
2018-02-03T05:37:09.439Z,4.40
2018-02-03T05:39:37.541Z,4.40
2018-02-03T05:42:06.446Z,4.40
2018-02-03T05:44:36.354Z,4.30
2018-02-03T05:47:04.466Z,4.30
2018-02-03T05:49:32.580Z,4.30
2018-02-03T05:52:01.488Z,4.20
2018-02-03T05:54:30.560Z,4.20
2018-02-03T05:56:58.663Z,4.20
2018-02-03T05:59:26.795Z,4.20
2018-02-03T06:01:54.924Z,4.20
2018-02-03T06:04:23.050Z,4.20
2018-02-03T06:06:51.169Z,4.20
2018-02-03T06:09:19.271Z,4.20
2018-02-03T06:11:47.425Z,4.20
2018-02-03T06:14:15.661Z,4.20
2018-02-03T06:16:43.771Z,4.20
2018-02-03T06:19:11.882Z,4.20
2018-02-03T06:21:40.002Z,4.20
2018-02-03T06:24:08.166Z,4.20
2018-02-03T06:26:36.331Z,4.20
2018-02-03T06:29:04.494Z,4.20
2018-02-03T06:31:33.376Z,4.20
2018-02-03T06:34:02.280Z,4.20
2018-02-03T06:36:30.455Z,4.20
2018-02-03T06:38:58.567Z,4.20
2018-02-03T06:41:26.825Z,4.30
2018-02-03T06:43:54.943Z,4.30
2018-02-03T06:46:23.055Z,4.30
2018-02-03T06:48:51.188Z,4.30
2018-02-03T06:51:19.299Z,4.30
2018-02-03T06:53:47.461Z,4.30
2018-02-03T06:56:16.177Z,4.30
2018-02-03T06:58:45.145Z,4.30
2018-02-03T07:01:13.569Z,4.20
2018-02-03T07:03:42.565Z,4.30
2018-02-03T07:06:10.826Z,4.30
2018-02-03T07:08:38.955Z,4.20
2018-02-03T07:11:07.837Z,4.30
2018-02-03T07:13:36.811Z,4.30
2018-02-03T07:16:06.431Z,4.20
2018-02-03T07:18:35.317Z,4.20
2018-02-03T07:21:03.475Z,4.20
2018-02-03T07:23:31.797Z,4.20
2018-02-03T07:25:59.903Z,4.20
2018-02-03T07:28:28.021Z,4.20
2018-02-03T07:30:57.052Z,4.20
2018-02-03T07:33:25.138Z,4.20
2018-02-03T07:35:53.339Z,4.20
2018-02-03T07:38:21.643Z,4.20
2018-02-03T07:40:50.510Z,4.20
2018-02-03T07:43:18.643Z,4.20
2018-02-03T07:45:46.810Z,4.20
2018-02-03T07:48:14.951Z,4.20
2018-02-03T07:50:43.846Z,4.20
2018-02-03T07:53:12.023Z,4.20
2018-02-03T07:55:40.195Z,4.20
2018-02-03T07:58:08.314Z,4.20
2018-02-03T08:00:36.427Z,4.20
2018-02-03T08:03:05.319Z,4.20
2018-02-03T08:05:34.237Z,4.30
2018-02-03T08:08:02.350Z,4.20
2018-02-03T08:10:30.467Z,4.30
2018-02-03T08:12:58.662Z,4.30
2018-02-03T08:15:26.796Z,4.30
2018-02-03T08:17:55.682Z,4.30
2018-02-03T08:20:23.827Z,4.30
2018-02-03T08:22:52.320Z,4.40
2018-02-03T08:25:20.482Z,4.40
2018-02-03T08:27:48.595Z,4.40
2018-02-03T08:30:16.865Z,4.30
2018-02-03T08:32:45.750Z,4.40
2018-02-03T08:35:14.746Z,4.40
2018-02-03T08:37:43.711Z,4.50
2018-02-03T08:40:11.770Z,4.50
2018-02-03T08:42:39.886Z,4.50
2018-02-03T08:45:08.927Z,4.60
2018-02-03T08:47:37.050Z,4.60
2018-02-03T08:50:05.968Z,4.60
2018-02-03T08:52:34.058Z,4.60
2018-02-03T08:55:02.308Z,4.60
2018-02-03T08:57:30.408Z,4.70
2018-02-03T08:59:58.538Z,4.70
2018-02-03T09:02:26.678Z,4.70
2018-02-03T09:04:54.809Z,4.70
2018-02-03T09:07:22.922Z,4.80
2018-02-03T09:09:51.058Z,4.80
2018-02-03T09:12:19.169Z,4.80
2018-02-03T09:14:47.568Z,4.80
2018-02-03T09:17:16.508Z,4.80
2018-02-03T09:19:44.642Z,4.80
2018-02-03T09:22:12.920Z,4.80
2018-02-03T09:24:41.125Z,4.80
2018-02-03T09:27:09.234Z,4.90
2018-02-03T09:29:37.972Z,4.90
2018-02-03T09:32:06.297Z,4.90
2018-02-03T09:34:34.623Z,4.90
2018-02-03T09:37:02.780Z,4.90
2018-02-03T09:39:30.942Z,5.00
2018-02-03T09:41:59.824Z,5.00
2018-02-03T09:44:28.828Z,5.10
2018-02-03T09:46:57.436Z,5.10
2018-02-03T09:49:25.696Z,5.20
2018-02-03T09:51:53.848Z,5.20
2018-02-03T09:54:22.738Z,5.20
2018-02-03T09:56:51.648Z,5.30
2018-02-03T09:59:19.761Z,5.30
2018-02-03T10:01:47.897Z,5.30
2018-02-03T10:04:16.766Z,5.40
2018-02-03T10:06:45.697Z,5.30
2018-02-03T10:09:13.840Z,5.40
2018-02-03T10:11:42.889Z,5.40
2018-02-03T10:14:11.032Z,5.40
2018-02-03T10:16:39.156Z,5.40
2018-02-03T10:19:07.283Z,5.40
2018-02-03T10:21:35.523Z,5.40
2018-02-03T10:24:05.271Z,5.50
2018-02-03T10:26:33.439Z,5.50
2018-02-03T10:29:01.584Z,5.50
2018-02-03T10:31:30.511Z,5.50
2018-02-03T10:33:58.907Z,5.50
2018-02-03T10:36:27.399Z,5.60
2018-02-03T10:38:55.563Z,5.60
2018-02-03T10:41:23.783Z,5.60
2018-02-03T10:43:52.155Z,5.60
2018-02-03T10:46:21.073Z,5.60
2018-02-03T10:48:49.183Z,5.60
2018-02-03T10:51:17.355Z,5.60
2018-02-03T10:53:45.701Z,5.60
2018-02-03T10:56:13.827Z,5.60
2018-02-03T10:58:42.711Z,5.50
2018-02-03T11:01:11.586Z,5.50
2018-02-03T11:03:40.614Z,5.50
2018-02-03T11:06:09.547Z,5.50
2018-02-03T11:08:37.660Z,5.50
2018-02-03T11:11:05.859Z,5.50
2018-02-03T11:13:33.989Z,5.40
2018-02-03T11:16:02.115Z,5.40
2018-02-03T11:18:30.291Z,5.40
2018-02-03T11:20:58.398Z,5.40
2018-02-03T11:23:26.599Z,5.50
2018-02-03T11:25:54.795Z,5.40
2018-02-03T11:28:22.923Z,5.50
2018-02-03T11:30:51.095Z,5.50
2018-02-03T11:33:19.414Z,5.60
2018-02-03T11:35:47.597Z,5.60
2018-02-03T11:38:15.699Z,5.60
2018-02-03T11:40:43.839Z,5.60
2018-02-03T11:43:12.015Z,5.60
2018-02-03T11:45:40.142Z,5.70
2018-02-03T11:48:08.367Z,5.70
2018-02-03T11:50:36.482Z,5.70
2018-02-03T11:53:04.639Z,5.70
2018-02-03T11:55:32.790Z,5.80
2018-02-03T11:58:00.899Z,5.80
2018-02-03T12:00:29.023Z,5.80
2018-02-03T12:02:58.112Z,5.70
2018-02-03T12:05:26.999Z,5.70
2018-02-03T12:07:55.902Z,5.60
2018-02-03T12:10:24.041Z,5.60
2018-02-03T12:12:52.490Z,5.60
2018-02-03T12:15:20.626Z,5.60
2018-02-03T12:17:48.796Z,5.70
2018-02-03T12:20:16.908Z,5.70
2018-02-03T12:22:45.138Z,5.70
2018-02-03T12:25:14.072Z,5.80
2018-02-03T12:27:42.198Z,5.70
2018-02-03T12:30:11.190Z,5.80
2018-02-03T12:32:40.060Z,5.90
2018-02-03T12:35:08.220Z,5.90
2018-02-03T12:37:37.280Z,5.90
2018-02-03T12:40:05.554Z,5.90
2018-02-03T12:42:33.646Z,6.00
2018-02-03T12:45:01.810Z,6.00
2018-02-03T12:47:29.932Z,6.10
2018-02-03T12:49:58.834Z,6.20
2018-02-03T12:52:26.964Z,6.20
2018-02-03T12:54:55.076Z,6.30
2018-02-03T12:57:24.024Z,6.40
2018-02-03T12:59:52.134Z,6.40
2018-02-03T13:02:21.020Z,6.50
2018-02-03T13:04:50.026Z,6.50
2018-02-03T13:07:18.195Z,6.50
2018-02-03T13:09:47.083Z,6.60
2018-02-03T13:12:16.006Z,6.60
2018-02-03T13:14:44.179Z,6.60
2018-02-03T13:17:12.250Z,6.60
2018-02-03T13:19:40.364Z,6.60
2018-02-03T13:22:08.540Z,6.70
2018-02-03T13:24:36.688Z,6.70
2018-02-03T13:27:04.809Z,6.70
2018-02-03T13:29:32.950Z,6.80
2018-02-03T13:32:01.065Z,6.80
2018-02-03T13:34:29.247Z,6.80
2018-02-03T13:36:57.403Z,6.80
2018-02-03T13:39:25.580Z,6.90
2018-02-03T13:41:54.456Z,6.80
2018-02-03T13:44:23.567Z,6.70
2018-02-03T13:46:51.703Z,6.70
2018-02-03T13:49:19.813Z,6.70
2018-02-03T13:51:47.935Z,6.70
2018-02-03T13:54:16.124Z,6.70
2018-02-03T13:56:44.237Z,6.70
2018-02-03T13:59:12.340Z,6.70
2018-02-03T14:01:40.567Z,6.70
2018-02-03T14:04:09.463Z,6.70
2018-02-03T14:06:37.595Z,6.70
2018-02-03T14:09:05.699Z,6.60
2018-02-03T14:11:34.624Z,6.60
2018-02-03T14:14:03.503Z,6.50
2018-02-03T14:16:31.623Z,6.60
2018-02-03T14:18:59.831Z,6.60
2018-02-03T14:21:28.729Z,6.50
2018-02-03T14:24:03.043Z,6.50
2018-02-03T14:26:31.979Z,6.50
2018-02-03T14:29:00.113Z,6.50
2018-02-03T14:31:28.976Z,6.50
2018-02-03T14:33:57.091Z,6.50
2018-02-03T14:36:25.255Z,6.50
2018-02-03T14:38:53.378Z,6.50
2018-02-03T14:41:21.488Z,6.50
2018-02-03T14:43:49.603Z,6.40
2018-02-03T14:46:17.775Z,6.50
2018-02-03T14:48:45.919Z,6.40
2018-02-03T14:51:14.828Z,6.40
2018-02-03T14:53:43.683Z,6.40
2018-02-03T14:56:11.834Z,6.40
2018-02-03T14:58:39.968Z,6.40
2018-02-03T15:01:08.067Z,6.40
2018-02-03T15:03:36.281Z,6.30
2018-02-03T15:06:05.155Z,6.20
2018-02-03T15:08:34.167Z,6.20
2018-02-03T15:11:02.290Z,6.20
2018-02-03T15:13:30.414Z,6.20
2018-02-03T15:15:58.687Z,6.20
2018-02-03T15:18:26.795Z,6.20
2018-02-03T15:20:54.904Z,6.20
2018-02-03T15:23:23.031Z,6.20
2018-02-03T15:25:51.147Z,6.10
2018-02-03T15:28:19.325Z,6.10
2018-02-03T15:30:47.514Z,6.10
2018-02-03T15:33:16.393Z,6.10
2018-02-03T15:35:45.427Z,6.10
2018-02-03T15:38:13.574Z,6.10
2018-02-03T15:40:41.780Z,6.10
2018-02-03T15:43:09.913Z,6.20
2018-02-03T15:45:38.856Z,6.20
2018-02-03T15:48:07.022Z,6.10
2018-02-03T15:50:35.222Z,6.20
2018-02-03T15:53:03.294Z,6.10
2018-02-03T15:55:32.246Z,6.20
2018-02-03T15:58:00.410Z,6.10
2018-02-03T16:00:28.518Z,6.10
2018-02-03T16:02:56.628Z,6.10
2018-02-03T16:05:25.517Z,6.10
2018-02-03T16:07:54.444Z,6.00
2018-02-03T16:10:22.595Z,6.00
2018-02-03T16:12:51.520Z,6.00
2018-02-03T16:15:19.700Z,6.00
2018-02-03T16:17:47.858Z,6.00
2018-02-03T16:20:16.030Z,5.90
2018-02-03T16:22:44.167Z,5.90
2018-02-03T16:25:13.065Z,5.90
2018-02-03T16:27:42.006Z,5.90
2018-02-03T16:32:37.370Z,5.80
2018-02-03T16:35:06.258Z,5.80
2018-02-03T16:37:35.166Z,5.80
2018-02-03T16:40:03.269Z,5.80
2018-02-03T16:42:31.432Z,5.70
2018-02-03T16:47:34.004Z,5.70
2018-02-03T16:50:02.136Z,5.70
2018-02-03T16:52:30.239Z,5.60
2018-02-03T16:54:59.172Z,5.60
2018-02-03T16:57:27.310Z,5.60
2018-02-03T16:59:56.208Z,5.60
2018-02-03T17:02:24.372Z,5.60
2018-02-03T17:04:52.492Z,5.60
2018-02-03T17:07:20.611Z,5.50
2018-02-03T17:09:49.709Z,5.50
2018-02-03T17:12:17.836Z,5.50
2018-02-03T17:14:46.005Z,5.50
2018-02-03T17:17:14.139Z,5.50
2018-02-03T17:19:42.401Z,5.40
2018-02-03T17:22:11.336Z,5.20
2018-02-03T17:24:39.455Z,5.20
2018-02-03T17:27:08.354Z,5.10
2018-02-03T17:29:37.289Z,5.00
2018-02-03T17:32:05.508Z,5.00
2018-02-03T17:34:34.520Z,4.90
2018-02-03T17:37:08.272Z,4.90
2018-02-03T17:39:36.383Z,4.90
2018-02-03T17:42:05.279Z,4.90
2018-02-03T17:44:34.173Z,4.80
2018-02-03T17:47:08.899Z,4.80
2018-02-03T17:49:37.007Z,4.80
2018-02-03T17:52:05.146Z,4.80
2018-02-03T17:54:33.278Z,4.70
2018-02-03T17:57:07.042Z,4.70
2018-02-03T17:59:35.175Z,4.70
2018-02-03T18:02:03.307Z,4.70
2018-02-03T18:04:31.465Z,4.60
2018-02-03T18:07:05.600Z,4.50
2018-02-03T18:09:33.766Z,4.50
2018-02-03T18:12:01.926Z,4.50
2018-02-03T18:14:30.037Z,4.50
2018-02-03T18:16:58.168Z,4.50
2018-02-03T18:19:26.289Z,4.40
2018-02-03T18:21:54.483Z,4.40
2018-02-03T18:24:23.374Z,4.40
2018-02-03T18:26:52.379Z,4.40
2018-02-03T18:29:20.511Z,4.40
2018-02-03T18:31:48.632Z,4.40
2018-02-03T18:34:16.766Z,4.30
2018-02-03T18:36:44.881Z,4.30
2018-02-03T18:39:13.139Z,4.40
2018-02-03T18:41:41.307Z,4.40
2018-02-03T18:44:10.227Z,4.40
2018-02-03T18:46:38.351Z,4.30
2018-02-03T18:49:06.653Z,4.40
2018-02-03T18:51:34.768Z,4.30
2018-02-03T18:54:02.889Z,4.30
2018-02-03T18:56:31.788Z,4.30
2018-02-03T18:58:59.906Z,4.30
2018-02-03T19:01:28.031Z,4.40
2018-02-03T19:03:56.194Z,4.40
2018-02-03T19:06:25.083Z,4.40
2018-02-03T19:08:54.021Z,4.40
2018-02-03T19:11:22.132Z,4.40
2018-02-03T19:13:50.233Z,4.50
2018-02-03T19:16:18.607Z,4.50
2018-02-03T19:18:46.784Z,4.50
2018-02-03T19:21:14.947Z,4.50
2018-02-03T19:23:43.132Z,4.50
2018-02-03T19:26:11.254Z,4.40
2018-02-03T19:28:39.378Z,4.40
2018-02-03T19:31:07.510Z,4.40
2018-02-03T19:33:35.682Z,4.40
2018-02-03T19:36:03.798Z,4.40
2018-02-03T19:38:31.948Z,4.40
2018-02-03T19:41:01.054Z,4.40
2018-02-03T19:43:29.168Z,4.40
2018-02-03T19:45:57.288Z,4.40
2018-02-03T19:48:26.394Z,4.40
2018-02-03T19:50:54.510Z,4.40
2018-02-03T19:53:22.614Z,4.40
2018-02-03T19:55:51.554Z,4.40
2018-02-03T19:58:19.806Z,4.40
2018-02-03T20:00:47.928Z,4.40
2018-02-03T20:03:16.040Z,4.40
2018-02-03T20:05:44.942Z,4.30
2018-02-03T20:08:13.834Z,4.30
2018-02-03T20:10:41.956Z,4.30
2018-02-03T20:13:10.172Z,4.40
2018-02-03T20:15:39.052Z,4.40
2018-02-03T20:18:07.966Z,4.40
2018-02-03T20:20:36.085Z,4.40
2018-02-03T20:23:04.197Z,4.40
2018-02-03T20:25:32.580Z,4.40
2018-02-03T20:28:00.854Z,4.40
2018-02-03T20:30:28.965Z,4.40
2018-02-03T20:32:57.076Z,4.40
2018-02-03T20:35:25.243Z,4.40
2018-02-03T20:37:53.442Z,4.40
2018-02-03T20:40:22.319Z,4.40
2018-02-03T20:42:51.230Z,4.30
2018-02-03T20:45:19.407Z,4.30
2018-02-03T20:47:47.554Z,4.30
2018-02-03T20:50:16.427Z,4.30
2018-02-03T20:52:44.543Z,4.30
2018-02-03T20:55:12.669Z,4.30
2018-02-03T20:57:40.789Z,4.40
2018-02-03T21:00:08.912Z,4.30
2018-02-03T21:02:37.079Z,4.40
2018-02-03T21:05:05.207Z,4.40
2018-02-03T21:07:33.343Z,4.40
2018-02-03T21:10:01.468Z,4.40
2018-02-03T21:12:29.575Z,4.40
2018-02-03T21:14:57.891Z,4.40
2018-02-03T21:17:26.003Z,4.40
2018-02-03T21:19:54.251Z,4.40
2018-02-03T21:22:22.412Z,4.50
2018-02-03T21:24:50.535Z,4.40
2018-02-03T21:27:18.653Z,4.50
2018-02-03T21:29:47.547Z,4.50
2018-02-03T21:32:15.675Z,4.50
2018-02-03T21:34:43.779Z,4.50
2018-02-03T21:37:12.681Z,4.50
2018-02-03T21:39:40.814Z,4.50
2018-02-03T21:42:08.927Z,4.50
2018-02-03T21:44:37.041Z,4.50
2018-02-03T21:47:05.215Z,4.60
2018-02-03T21:49:33.367Z,4.60
2018-02-03T21:52:01.506Z,4.60
2018-02-03T21:54:29.694Z,4.60
2018-02-03T21:56:57.859Z,4.60
2018-02-03T21:59:25.974Z,4.60
2018-02-03T22:01:54.090Z,4.60
2018-02-03T22:04:22.987Z,4.60
2018-02-03T22:06:51.895Z,4.60
2018-02-03T22:09:20.058Z,4.60
2018-02-03T22:11:48.175Z,4.60
2018-02-03T22:14:16.274Z,4.70
2018-02-03T22:16:44.410Z,4.70
2018-02-03T22:19:12.527Z,4.70
2018-02-03T22:21:41.416Z,4.70
2018-02-03T22:24:09.542Z,4.70
2018-02-03T22:26:37.662Z,4.70
2018-02-03T22:29:06.674Z,4.70
2018-02-03T22:31:34.787Z,4.70
2018-02-03T22:34:02.903Z,4.80
2018-02-03T22:36:31.798Z,4.80
2018-02-03T22:39:00.698Z,4.80
2018-02-03T22:41:28.808Z,4.80
2018-02-03T22:43:56.930Z,4.80
2018-02-03T22:46:25.846Z,4.80
2018-02-03T22:48:53.959Z,4.80
2018-02-03T22:51:22.075Z,4.80
2018-02-03T22:53:51.054Z,4.80
2018-02-03T22:56:19.938Z,4.80
2018-02-03T22:58:48.138Z,4.80
2018-02-03T23:01:17.051Z,4.80
2018-02-03T23:03:45.163Z,4.80
2018-02-03T23:06:13.366Z,4.70
2018-02-03T23:08:41.544Z,4.70
2018-02-03T23:11:09.660Z,4.70
2018-02-03T23:13:37.776Z,4.70
2018-02-03T23:16:06.772Z,4.70
2018-02-03T23:18:35.870Z,4.70
2018-02-03T23:21:04.746Z,4.70
2018-02-03T23:23:33.627Z,4.70
2018-02-03T23:26:01.758Z,4.70
2018-02-03T23:28:29.882Z,4.70
2018-02-03T23:30:58.774Z,4.60
2018-02-03T23:33:27.890Z,4.60
2018-02-03T23:35:56.004Z,4.60
2018-02-03T23:38:24.128Z,4.60
2018-02-03T23:40:53.014Z,4.50
2018-02-03T23:43:21.890Z,4.50
2018-02-03T23:45:50.796Z,4.50
2018-02-03T23:48:18.975Z,4.50
2018-02-03T23:50:47.112Z,4.50
2018-02-03T23:53:15.313Z,4.50
2018-02-03T23:55:44.196Z,4.50
2018-02-03T23:58:13.105Z,4.50
